DILIA BGNO-BGMV
Flight info
| Callsign | DILIA |
|---|---|
| Flight time | 1h 51m |
| Altitude | 36000 |
| Route | NO DCT 8020N DCT 7620N DCT NANUK |
| Aircraft | C525/L-SDFGRWY/S |
Departure
| Time | 2026-05-09 05:59 |
|---|---|
| Airport | Station Nord Heliport (BGNO) |
Arrival
| Time | 2026-05-09 07:51 |
|---|---|
| Airport | Mestersvig Airport (BGMV) |
| Time | Latitude | Longitude | Altitude | Speed | Heading |
|---|---|---|---|---|---|
| 2026-05-09 05:44 | 81.59644 | -16.66573 | 104 ft | 0 kts | 178° |
| 2026-05-09 05:57 | 81.59618 | -16.66589 | 104 ft | 10 kts | 188° |
| 2026-05-09 05:58 | 81.59522 | -16.66759 | 101 ft | 15 kts | 199° |
| 2026-05-09 05:58 | 81.59425 | -16.67026 | 97 ft | 15 kts | 205° |
| 2026-05-09 05:58 | 81.59341 | -16.67456 | 88 ft | 17 kts | 244° |
| 2026-05-09 05:58 | 81.59307 | -16.68079 | 80 ft | 5 kts | 251° |
| 2026-05-09 05:59 | 81.59318 | -16.68224 | 79 ft | 4 kts | 45° |
| 2026-05-09 05:59 | 81.59333 | -16.68177 | 80 ft | 1 kts | 3° |
| 2026-05-09 05:59 | 81.59578 | -16.68119 | 78 ft | 66 kts | 2° |
| 2026-05-09 05:59 | 81.60226 | -16.67948 | 98 ft | 113 kts | 5° |
| 2026-05-09 06:00 | 81.61047 | -16.67627 | 473 ft | 123 kts | 4° |
| 2026-05-09 06:00 | 81.61938 | -16.67282 | 842 ft | 138 kts | 5° |
| 2026-05-09 06:00 | 81.62901 | -16.66850 | 1379 ft | 139 kts | 1° |
| 2026-05-09 06:00 | 81.63854 | -16.65470 | 1763 ft | 147 kts | 41° |
| 2026-05-09 06:01 | 81.64112 | -16.59316 | 2238 ft | 143 kts | 105° |
| 2026-05-09 06:01 | 81.63531 | -16.54249 | 2838 ft | 132 kts | 154° |
| 2026-05-09 06:01 | 81.62619 | -16.54758 | 2972 ft | 158 kts | 211° |
| 2026-05-09 06:01 | 81.61684 | -16.59391 | 3295 ft | 172 kts | 205° |
| 2026-05-09 06:02 | 81.60519 | -16.61075 | 3888 ft | 175 kts | 194° |
| 2026-05-09 06:02 | 81.59591 | -16.66399 | 4443 ft | 186 kts | 239° |
| 2026-05-09 06:02 | 81.59475 | -16.75232 | 5026 ft | 198 kts | 283° |
| 2026-05-09 06:02 | 81.60290 | -16.82736 | 5599 ft | 208 kts | 325° |
| 2026-05-09 06:03 | 81.61668 | -16.85035 | 6156 ft | 213 kts | 6° |
| 2026-05-09 06:03 | 81.62993 | -16.80977 | 6739 ft | 213 kts | 37° |
| 2026-05-09 06:03 | 81.64062 | -16.74121 | 7267 ft | 212 kts | 63° |
| 2026-05-09 06:03 | 81.64290 | -16.64617 | 7817 ft | 205 kts | 105° |
| 2026-05-09 06:04 | 81.63477 | -16.57271 | 8346 ft | 198 kts | 161° |
| 2026-05-09 06:04 | 81.62184 | -16.59024 | 8953 ft | 194 kts | 200° |
| 2026-05-09 06:04 | 81.60929 | -16.62356 | 9390 ft | 199 kts | 200° |
| 2026-05-09 06:04 | 81.59601 | -16.65989 | 9658 ft | 218 kts | 200° |
| 2026-05-09 06:05 | 81.58110 | -16.69789 | 9962 ft | 243 kts | 199° |
| 2026-05-09 06:05 | 81.56457 | -16.73972 | 10282 ft | 265 kts | 199° |
| 2026-05-09 06:05 | 81.54723 | -16.78271 | 11044 ft | 267 kts | 199° |
| 2026-05-09 06:05 | 81.52996 | -16.82523 | 11691 ft | 271 kts | 199° |
| 2026-05-09 06:06 | 81.51211 | -16.86897 | 12391 ft | 274 kts | 199° |
| 2026-05-09 06:06 | 81.49444 | -16.91217 | 13051 ft | 277 kts | 199° |
| 2026-05-09 06:06 | 81.47637 | -16.95618 | 13682 ft | 280 kts | 198° |
| 2026-05-09 06:06 | 81.45809 | -17.00053 | 14277 ft | 282 kts | 198° |
| 2026-05-09 06:07 | 81.43951 | -17.04543 | 14868 ft | 285 kts | 198° |
| 2026-05-09 06:07 | 81.42106 | -17.08984 | 15412 ft | 288 kts | 198° |
| 2026-05-09 06:07 | 81.40221 | -17.13501 | 15962 ft | 291 kts | 198° |
| 2026-05-09 06:07 | 81.38336 | -17.17999 | 16483 ft | 293 kts | 198° |
| 2026-05-09 06:08 | 81.36396 | -17.22607 | 16992 ft | 296 kts | 198° |
| 2026-05-09 06:08 | 81.34471 | -17.27160 | 17509 ft | 298 kts | 198° |
| 2026-05-09 06:08 | 81.32525 | -17.31742 | 17982 ft | 300 kts | 198° |
| 2026-05-09 06:08 | 81.30570 | -17.36322 | 18461 ft | 302 kts | 198° |
| 2026-05-09 06:09 | 81.28604 | -17.40906 | 18910 ft | 304 kts | 198° |
| 2026-05-09 06:09 | 81.26627 | -17.45495 | 19353 ft | 306 kts | 198° |
| 2026-05-09 06:09 | 81.24614 | -17.50144 | 19775 ft | 308 kts | 198° |
| 2026-05-09 06:09 | 81.22606 | -17.54761 | 20173 ft | 310 kts | 198° |
| 2026-05-09 06:10 | 81.20579 | -17.59397 | 20568 ft | 313 kts | 198° |
| 2026-05-09 06:10 | 81.18516 | -17.64091 | 20952 ft | 315 kts | 198° |
| 2026-05-09 06:10 | 81.16454 | -17.68764 | 21329 ft | 317 kts | 197° |
| 2026-05-09 06:10 | 81.14365 | -17.73473 | 21686 ft | 319 kts | 197° |
| 2026-05-09 06:11 | 81.12286 | -17.78134 | 22036 ft | 321 kts | 197° |
| 2026-05-09 06:11 | 81.10178 | -17.82841 | 22356 ft | 323 kts | 197° |
| 2026-05-09 06:11 | 81.08056 | -17.87554 | 22705 ft | 324 kts | 197° |
| 2026-05-09 06:11 | 81.05900 | -17.92319 | 23019 ft | 326 kts | 197° |
| 2026-05-09 06:12 | 81.03742 | -17.97063 | 23345 ft | 328 kts | 197° |
| 2026-05-09 06:12 | 81.01592 | -18.01767 | 23638 ft | 330 kts | 197° |
| 2026-05-09 06:12 | 80.99423 | -18.06488 | 23929 ft | 332 kts | 197° |
| 2026-05-09 06:12 | 80.97244 | -18.11207 | 24227 ft | 333 kts | 197° |
| 2026-05-09 06:13 | 80.95068 | -18.15895 | 24499 ft | 335 kts | 197° |
| 2026-05-09 06:13 | 80.92848 | -18.20653 | 24780 ft | 336 kts | 197° |
| 2026-05-09 06:13 | 80.90657 | -18.25327 | 25036 ft | 338 kts | 197° |
| 2026-05-09 06:13 | 80.88425 | -18.30063 | 25296 ft | 339 kts | 197° |
| 2026-05-09 06:14 | 80.86192 | -18.34775 | 25522 ft | 342 kts | 197° |
| 2026-05-09 06:14 | 80.83936 | -18.39514 | 25762 ft | 343 kts | 197° |
| 2026-05-09 06:14 | 80.81697 | -18.44193 | 25996 ft | 344 kts | 197° |
| 2026-05-09 06:14 | 80.79404 | -18.48960 | 26188 ft | 347 kts | 197° |
| 2026-05-09 06:15 | 80.77135 | -18.53653 | 26420 ft | 348 kts | 197° |
| 2026-05-09 06:15 | 80.74834 | -18.58387 | 26634 ft | 349 kts | 198° |
| 2026-05-09 06:15 | 80.72542 | -18.63078 | 27043 ft | 345 kts | 198° |
| 2026-05-09 06:15 | 80.70280 | -18.67680 | 27232 ft | 347 kts | 197° |
| 2026-05-09 06:16 | 80.67992 | -18.72316 | 27482 ft | 348 kts | 197° |
| 2026-05-09 06:16 | 80.65711 | -18.76913 | 27684 ft | 349 kts | 197° |
| 2026-05-09 06:16 | 80.63392 | -18.81565 | 27882 ft | 351 kts | 197° |
| 2026-05-09 06:16 | 80.61080 | -18.86176 | 28076 ft | 353 kts | 197° |
| 2026-05-09 06:17 | 80.58768 | -18.90763 | 28299 ft | 353 kts | 197° |
| 2026-05-09 06:17 | 80.56428 | -18.95385 | 28650 ft | 350 kts | 197° |
| 2026-05-09 06:17 | 80.54098 | -18.99960 | 28836 ft | 351 kts | 197° |
| 2026-05-09 06:17 | 80.51784 | -19.04480 | 29015 ft | 353 kts | 197° |
| 2026-05-09 06:18 | 80.49426 | -19.09065 | 29163 ft | 355 kts | 197° |
| 2026-05-09 06:18 | 80.47111 | -19.13542 | 29332 ft | 356 kts | 197° |
| 2026-05-09 06:18 | 80.44743 | -19.18101 | 29490 ft | 357 kts | 197° |
| 2026-05-09 06:18 | 80.42393 | -19.22602 | 29643 ft | 358 kts | 197° |
| 2026-05-09 06:19 | 80.40059 | -19.27047 | 29930 ft | 354 kts | 197° |
| 2026-05-09 06:19 | 80.37762 | -19.31399 | 30297 ft | 348 kts | 197° |
| 2026-05-09 06:19 | 80.35446 | -19.35765 | 30449 ft | 349 kts | 197° |
| 2026-05-09 06:19 | 80.33131 | -19.40109 | 30603 ft | 350 kts | 197° |
| 2026-05-09 06:20 | 80.30818 | -19.44428 | 30770 ft | 351 kts | 197° |
| 2026-05-09 06:20 | 80.28486 | -19.48761 | 30909 ft | 353 kts | 197° |
| 2026-05-09 06:20 | 80.26144 | -19.53089 | 31050 ft | 354 kts | 197° |
| 2026-05-09 06:20 | 80.23798 | -19.57404 | 31173 ft | 355 kts | 197° |
| 2026-05-09 06:21 | 80.19093 | -19.65994 | 31337 ft | 358 kts | 196° |
| 2026-05-09 06:21 | 80.16746 | -19.70248 | 31477 ft | 356 kts | 196° |
| 2026-05-09 06:21 | 80.14433 | -19.74417 | 31744 ft | 347 kts | 196° |
| 2026-05-09 06:22 | 80.09827 | -19.82662 | 31907 ft | 349 kts | 196° |
| 2026-05-09 06:22 | 80.05177 | -19.90907 | 32077 ft | 350 kts | 197° |
| 2026-05-09 06:23 | 80.00509 | -19.98678 | 32264 ft | 348 kts | 189° |
| 2026-05-09 06:23 | 79.98141 | -19.99834 | 32409 ft | 345 kts | 182° |
| 2026-05-09 06:23 | 79.95754 | -20.00079 | 32458 ft | 346 kts | 180° |
| 2026-05-09 06:24 | 79.90956 | -20.00090 | 32584 ft | 348 kts | 179° |
| 2026-05-09 06:24 | 79.86137 | -20.00048 | 32724 ft | 350 kts | 179° |
| 2026-05-09 06:25 | 79.81282 | -20.00022 | 32854 ft | 351 kts | 179° |
| 2026-05-09 06:25 | 79.76414 | -20.00008 | 32975 ft | 352 kts | 180° |
| 2026-05-09 06:26 | 79.71528 | -20.00000 | 33172 ft | 349 kts | 180° |
| 2026-05-09 06:26 | 79.66715 | -19.99995 | 33346 ft | 347 kts | 180° |
| 2026-05-09 06:27 | 79.61951 | -19.99993 | 33557 ft | 344 kts | 180° |
| 2026-05-09 06:27 | 79.59586 | -19.99992 | 33681 ft | 343 kts | 180° |
| 2026-05-09 06:27 | 79.57200 | -19.99992 | 33806 ft | 342 kts | 179° |
| 2026-05-09 06:28 | 79.54842 | -19.99992 | 33930 ft | 340 kts | 179° |
| 2026-05-09 06:28 | 79.52486 | -19.99991 | 34050 ft | 339 kts | 179° |
| 2026-05-09 06:28 | 79.50156 | -19.99991 | 34170 ft | 338 kts | 179° |
| 2026-05-09 06:28 | 79.47820 | -19.99991 | 34294 ft | 337 kts | 180° |
| 2026-05-09 06:29 | 79.45490 | -19.99991 | 34421 ft | 335 kts | 180° |
| 2026-05-09 06:29 | 79.43153 | -19.99991 | 34544 ft | 334 kts | 180° |
| 2026-05-09 06:29 | 79.40843 | -19.99991 | 34666 ft | 333 kts | 180° |
| 2026-05-09 06:29 | 79.38570 | -19.99990 | 34785 ft | 332 kts | 180° |
| 2026-05-09 06:30 | 79.36272 | -19.99990 | 34910 ft | 331 kts | 180° |
| 2026-05-09 06:30 | 79.33989 | -19.99990 | 35032 ft | 329 kts | 180° |
| 2026-05-09 06:30 | 79.31722 | -19.99990 | 35153 ft | 328 kts | 180° |
| 2026-05-09 06:30 | 79.29433 | -19.99990 | 35277 ft | 327 kts | 180° |
| 2026-05-09 06:31 | 79.27188 | -19.99990 | 35402 ft | 325 kts | 180° |
| 2026-05-09 06:31 | 79.24949 | -19.99991 | 35524 ft | 324 kts | 180° |
| 2026-05-09 06:31 | 79.22710 | -19.99992 | 35645 ft | 322 kts | 180° |
| 2026-05-09 06:31 | 79.20481 | -19.99992 | 35767 ft | 321 kts | 179° |
| 2026-05-09 06:32 | 79.18256 | -19.99992 | 35889 ft | 319 kts | 179° |
| 2026-05-09 06:32 | 79.16077 | -19.99992 | 36010 ft | 317 kts | 180° |
| 2026-05-09 06:32 | 79.13877 | -19.99992 | 36115 ft | 316 kts | 180° |
| 2026-05-09 06:33 | 79.09463 | -19.99991 | 36171 ft | 321 kts | 180° |
| 2026-05-09 06:33 | 79.05006 | -19.99992 | 36195 ft | 326 kts | 180° |
| 2026-05-09 06:34 | 78.98143 | -19.99993 | 36230 ft | 333 kts | 180° |
| 2026-05-09 06:34 | 78.93507 | -19.99993 | 36247 ft | 337 kts | 180° |
| 2026-05-09 06:35 | 78.88799 | -19.99993 | 36261 ft | 341 kts | 180° |
| 2026-05-09 06:35 | 78.84091 | -19.99993 | 36278 ft | 344 kts | 180° |
| 2026-05-09 06:36 | 78.79299 | -19.99993 | 36297 ft | 346 kts | 180° |
| 2026-05-09 06:36 | 78.74485 | -19.99994 | 36318 ft | 349 kts | 180° |
| 2026-05-09 06:37 | 78.69624 | -19.99994 | 36328 ft | 351 kts | 180° |
| 2026-05-09 06:37 | 78.64775 | -19.99993 | 36335 ft | 353 kts | 180° |
| 2026-05-09 06:38 | 78.59866 | -19.99994 | 36337 ft | 355 kts | 180° |
| 2026-05-09 06:38 | 78.54926 | -19.99994 | 36333 ft | 357 kts | 180° |
| 2026-05-09 06:39 | 78.49969 | -19.99994 | 36329 ft | 359 kts | 180° |
| 2026-05-09 06:39 | 78.44974 | -19.99994 | 36329 ft | 361 kts | 180° |
| 2026-05-09 06:40 | 78.39980 | -19.99994 | 36332 ft | 362 kts | 180° |
| 2026-05-09 06:40 | 78.34985 | -19.99994 | 36335 ft | 363 kts | 180° |
| 2026-05-09 06:41 | 78.29964 | -19.99994 | 36333 ft | 364 kts | 180° |
| 2026-05-09 06:41 | 78.24911 | -19.99994 | 36330 ft | 365 kts | 180° |
| 2026-05-09 06:42 | 78.19870 | -19.99994 | 36337 ft | 365 kts | 180° |
| 2026-05-09 06:42 | 78.14788 | -19.99994 | 36338 ft | 366 kts | 180° |
| 2026-05-09 06:43 | 78.09721 | -19.99994 | 36335 ft | 367 kts | 180° |
| 2026-05-09 06:43 | 78.04624 | -19.99994 | 36337 ft | 367 kts | 180° |
| 2026-05-09 06:44 | 77.99558 | -19.99994 | 36332 ft | 368 kts | 180° |
| 2026-05-09 06:44 | 77.94443 | -19.99994 | 36314 ft | 369 kts | 180° |
| 2026-05-09 06:45 | 77.89352 | -19.99994 | 36290 ft | 370 kts | 180° |
| 2026-05-09 06:45 | 77.84204 | -19.99994 | 36273 ft | 371 kts | 180° |
| 2026-05-09 06:46 | 77.79071 | -19.99994 | 36257 ft | 371 kts | 180° |
| 2026-05-09 06:46 | 77.73939 | -19.99994 | 36240 ft | 372 kts | 180° |
| 2026-05-09 06:47 | 77.68790 | -19.99994 | 36254 ft | 371 kts | 180° |
| 2026-05-09 06:47 | 77.63650 | -19.99994 | 36275 ft | 370 kts | 180° |
| 2026-05-09 06:48 | 77.58556 | -19.99994 | 36293 ft | 370 kts | 180° |
| 2026-05-09 06:48 | 77.53450 | -19.99994 | 36307 ft | 369 kts | 180° |
| 2026-05-09 06:49 | 77.48338 | -19.99994 | 36321 ft | 369 kts | 180° |
| 2026-05-09 06:49 | 77.43218 | -19.99994 | 36311 ft | 370 kts | 180° |
| 2026-05-09 06:50 | 77.38088 | -19.99995 | 36284 ft | 371 kts | 180° |
| 2026-05-09 06:50 | 77.32969 | -19.99996 | 36257 ft | 372 kts | 180° |
| 2026-05-09 06:51 | 77.27802 | -19.99995 | 36239 ft | 373 kts | 180° |
| 2026-05-09 06:51 | 77.22627 | -19.99995 | 36227 ft | 373 kts | 180° |
| 2026-05-09 06:52 | 77.17496 | -19.99995 | 36236 ft | 373 kts | 180° |
| 2026-05-09 06:52 | 77.12323 | -19.99995 | 36246 ft | 372 kts | 180° |
| 2026-05-09 06:53 | 77.07178 | -19.99995 | 36262 ft | 372 kts | 180° |
| 2026-05-09 06:53 | 77.02054 | -19.99995 | 36276 ft | 371 kts | 180° |
| 2026-05-09 06:54 | 76.96922 | -19.99994 | 36289 ft | 371 kts | 180° |
| 2026-05-09 06:54 | 76.91782 | -19.99994 | 36299 ft | 371 kts | 180° |
| 2026-05-09 06:55 | 76.86629 | -19.99994 | 36310 ft | 371 kts | 180° |
| 2026-05-09 06:55 | 76.81514 | -19.99994 | 36320 ft | 371 kts | 180° |
| 2026-05-09 06:56 | 76.76368 | -19.99994 | 36330 ft | 371 kts | 180° |
| 2026-05-09 06:56 | 76.71243 | -19.99994 | 36339 ft | 371 kts | 180° |
| 2026-05-09 06:57 | 76.66114 | -19.99994 | 36338 ft | 371 kts | 180° |
| 2026-05-09 06:57 | 76.61040 | -19.99995 | 36339 ft | 371 kts | 180° |
| 2026-05-09 06:58 | 76.55850 | -19.99995 | 36338 ft | 371 kts | 180° |
| 2026-05-09 06:58 | 76.50727 | -19.99995 | 36339 ft | 372 kts | 180° |
| 2026-05-09 06:59 | 76.45570 | -19.99995 | 36337 ft | 372 kts | 180° |
| 2026-05-09 06:59 | 76.40408 | -19.99995 | 36338 ft | 372 kts | 180° |
| 2026-05-09 07:00 | 76.35267 | -19.99995 | 36333 ft | 373 kts | 180° |
| 2026-05-09 07:00 | 76.30101 | -19.99995 | 36332 ft | 373 kts | 180° |
| 2026-05-09 07:01 | 76.24950 | -19.99995 | 36333 ft | 373 kts | 180° |
| 2026-05-09 07:01 | 76.19795 | -19.99995 | 36333 ft | 373 kts | 180° |
| 2026-05-09 07:02 | 76.14623 | -19.99995 | 36330 ft | 373 kts | 180° |
| 2026-05-09 07:02 | 76.09458 | -19.99995 | 36323 ft | 374 kts | 180° |
| 2026-05-09 07:03 | 76.04258 | -19.99995 | 36318 ft | 374 kts | 181° |
| 2026-05-09 07:03 | 75.99114 | -20.00939 | 36324 ft | 373 kts | 190° |
| 2026-05-09 07:04 | 75.94033 | -20.05117 | 36310 ft | 374 kts | 193° |
| 2026-05-09 07:04 | 75.89020 | -20.09554 | 36301 ft | 374 kts | 193° |
| 2026-05-09 07:05 | 75.83920 | -20.14026 | 36285 ft | 375 kts | 193° |
| 2026-05-09 07:05 | 75.78853 | -20.18419 | 36260 ft | 375 kts | 193° |
| 2026-05-09 07:06 | 75.73743 | -20.22808 | 36230 ft | 376 kts | 193° |
| 2026-05-09 07:06 | 75.68655 | -20.27140 | 36211 ft | 376 kts | 193° |
| 2026-05-09 07:07 | 75.63532 | -20.31469 | 36186 ft | 377 kts | 193° |
| 2026-05-09 07:07 | 75.58431 | -20.35747 | 36160 ft | 378 kts | 193° |
| 2026-05-09 07:08 | 75.53299 | -20.40020 | 36136 ft | 378 kts | 193° |
| 2026-05-09 07:08 | 75.48177 | -20.44254 | 36115 ft | 379 kts | 193° |
| 2026-05-09 07:09 | 75.43041 | -20.48468 | 36135 ft | 378 kts | 193° |
| 2026-05-09 07:09 | 75.37955 | -20.52612 | 36175 ft | 376 kts | 193° |
| 2026-05-09 07:10 | 75.32866 | -20.56729 | 36230 ft | 374 kts | 193° |
| 2026-05-09 07:10 | 75.27773 | -20.60823 | 36289 ft | 373 kts | 193° |
| 2026-05-09 07:11 | 75.22738 | -20.64841 | 36341 ft | 371 kts | 193° |
| 2026-05-09 07:11 | 75.17676 | -20.68855 | 36333 ft | 373 kts | 193° |
| 2026-05-09 07:12 | 75.12642 | -20.72820 | 36314 ft | 374 kts | 193° |
| 2026-05-09 07:12 | 75.07557 | -20.76797 | 36291 ft | 375 kts | 193° |
| 2026-05-09 07:13 | 75.02437 | -20.80775 | 36258 ft | 377 kts | 193° |
| 2026-05-09 07:13 | 74.97310 | -20.84730 | 36229 ft | 378 kts | 193° |
| 2026-05-09 07:14 | 74.92186 | -20.88656 | 36209 ft | 379 kts | 193° |
| 2026-05-09 07:14 | 74.87049 | -20.92566 | 36181 ft | 380 kts | 193° |
| 2026-05-09 07:15 | 74.81892 | -20.96464 | 36154 ft | 380 kts | 193° |
| 2026-05-09 07:15 | 74.76687 | -21.00372 | 36129 ft | 381 kts | 193° |
| 2026-05-09 07:16 | 74.71513 | -21.04229 | 36125 ft | 381 kts | 193° |
| 2026-05-09 07:16 | 74.66375 | -21.08035 | 36131 ft | 380 kts | 193° |
| 2026-05-09 07:17 | 74.61189 | -21.11850 | 36146 ft | 380 kts | 193° |
| 2026-05-09 07:17 | 74.56045 | -21.15610 | 36162 ft | 379 kts | 193° |
| 2026-05-09 07:18 | 74.50880 | -21.19360 | 36182 ft | 379 kts | 193° |
| 2026-05-09 07:18 | 74.45739 | -21.23068 | 36187 ft | 379 kts | 193° |
| 2026-05-09 07:19 | 74.40563 | -21.26778 | 36154 ft | 380 kts | 193° |
| 2026-05-09 07:19 | 74.35371 | -21.30475 | 36125 ft | 382 kts | 193° |
| 2026-05-09 07:20 | 74.30180 | -21.34145 | 36091 ft | 383 kts | 193° |
| 2026-05-09 07:20 | 74.24949 | -21.37821 | 36060 ft | 384 kts | 193° |
| 2026-05-09 07:21 | 74.19751 | -21.41447 | 36075 ft | 383 kts | 193° |
| 2026-05-09 07:21 | 74.14547 | -21.45055 | 36114 ft | 382 kts | 193° |
| 2026-05-09 07:22 | 74.09350 | -21.48634 | 36141 ft | 381 kts | 193° |
| 2026-05-09 07:22 | 74.04174 | -21.52177 | 36156 ft | 381 kts | 194° |
| 2026-05-09 07:23 | 73.99010 | -21.55688 | 36177 ft | 381 kts | 194° |
| 2026-05-09 07:23 | 73.93835 | -21.59186 | 36194 ft | 381 kts | 194° |
| 2026-05-09 07:24 | 73.88663 | -21.62658 | 36207 ft | 381 kts | 194° |
| 2026-05-09 07:24 | 73.83495 | -21.66106 | 36229 ft | 380 kts | 193° |
| 2026-05-09 07:25 | 73.78301 | -21.69550 | 36255 ft | 380 kts | 193° |
| 2026-05-09 07:25 | 73.73132 | -21.72954 | 36295 ft | 379 kts | 193° |
| 2026-05-09 07:26 | 73.67941 | -21.76353 | 36308 ft | 380 kts | 193° |
| 2026-05-09 07:26 | 73.62769 | -21.79719 | 36149 ft | 386 kts | 193° |
| 2026-05-09 07:27 | 73.60072 | -21.81474 | 35718 ft | 400 kts | 193° |
| 2026-05-09 07:27 | 73.57330 | -21.83253 | 35323 ft | 412 kts | 193° |
| 2026-05-09 07:27 | 73.54453 | -21.85111 | 34915 ft | 422 kts | 193° |
| 2026-05-09 07:27 | 73.51582 | -21.86954 | 34509 ft | 426 kts | 193° |
| 2026-05-09 07:28 | 73.48673 | -21.88808 | 34087 ft | 426 kts | 193° |
| 2026-05-09 07:28 | 73.45773 | -21.90649 | 33667 ft | 427 kts | 193° |
| 2026-05-09 07:28 | 73.42856 | -21.92496 | 33243 ft | 427 kts | 193° |
| 2026-05-09 07:28 | 73.39936 | -21.94338 | 32886 ft | 427 kts | 193° |
| 2026-05-09 07:29 | 73.37060 | -21.96146 | 32546 ft | 427 kts | 193° |
| 2026-05-09 07:29 | 73.34132 | -21.97984 | 32196 ft | 427 kts | 193° |
| 2026-05-09 07:29 | 73.31237 | -21.99793 | 31844 ft | 427 kts | 193° |
| 2026-05-09 07:29 | 73.28337 | -22.01599 | 31488 ft | 427 kts | 194° |
| 2026-05-09 07:30 | 73.25427 | -22.03407 | 31129 ft | 427 kts | 194° |
| 2026-05-09 07:30 | 73.22523 | -22.05204 | 30767 ft | 426 kts | 194° |
| 2026-05-09 07:30 | 73.19585 | -22.07018 | 30404 ft | 427 kts | 194° |
| 2026-05-09 07:30 | 73.16686 | -22.08804 | 29975 ft | 430 kts | 194° |
| 2026-05-09 07:31 | 73.13734 | -22.10615 | 29528 ft | 431 kts | 194° |
| 2026-05-09 07:31 | 73.10817 | -22.12397 | 29080 ft | 432 kts | 194° |
| 2026-05-09 07:31 | 73.07891 | -22.14178 | 28632 ft | 433 kts | 193° |
| 2026-05-09 07:31 | 73.04898 | -22.15993 | 28165 ft | 433 kts | 193° |
| 2026-05-09 07:32 | 73.01965 | -22.17765 | 27698 ft | 433 kts | 194° |
| 2026-05-09 07:32 | 72.99010 | -22.19538 | 27186 ft | 423 kts | 193° |
| 2026-05-09 07:32 | 72.96169 | -22.21234 | 26665 ft | 414 kts | 193° |
| 2026-05-09 07:32 | 72.93369 | -22.22903 | 26135 ft | 407 kts | 194° |
| 2026-05-09 07:33 | 72.90615 | -22.24543 | 25634 ft | 402 kts | 194° |
| 2026-05-09 07:33 | 72.85223 | -22.27743 | 24497 ft | 393 kts | 194° |
| 2026-05-09 07:33 | 72.82550 | -22.29324 | 23878 ft | 388 kts | 194° |
| 2026-05-09 07:34 | 72.79904 | -22.30884 | 23242 ft | 385 kts | 194° |
| 2026-05-09 07:34 | 72.77293 | -22.32418 | 22584 ft | 381 kts | 194° |
| 2026-05-09 07:34 | 72.74726 | -22.33923 | 21957 ft | 378 kts | 193° |
| 2026-05-09 07:34 | 72.72147 | -22.35431 | 21320 ft | 375 kts | 193° |
| 2026-05-09 07:35 | 72.69604 | -22.36913 | 20679 ft | 373 kts | 193° |
| 2026-05-09 07:35 | 72.67075 | -22.38383 | 20024 ft | 370 kts | 193° |
| 2026-05-09 07:35 | 72.64578 | -22.39830 | 19365 ft | 367 kts | 193° |
| 2026-05-09 07:35 | 72.62053 | -22.41289 | 18685 ft | 365 kts | 193° |
| 2026-05-09 07:36 | 72.59592 | -22.42707 | 18025 ft | 362 kts | 192° |
| 2026-05-09 07:36 | 72.57111 | -22.44131 | 17336 ft | 360 kts | 192° |
| 2026-05-09 07:36 | 72.54680 | -22.45524 | 16656 ft | 358 kts | 192° |
| 2026-05-09 07:36 | 72.52220 | -22.46930 | 15962 ft | 355 kts | 192° |
| 2026-05-09 07:37 | 72.49810 | -22.48303 | 15280 ft | 353 kts | 192° |
| 2026-05-09 07:37 | 72.47432 | -22.49654 | 14614 ft | 350 kts | 191° |
| 2026-05-09 07:37 | 72.45027 | -22.51016 | 13943 ft | 348 kts | 191° |
| 2026-05-09 07:37 | 72.42669 | -22.52348 | 13280 ft | 346 kts | 191° |
| 2026-05-09 07:38 | 72.40339 | -22.53661 | 12617 ft | 343 kts | 191° |
| 2026-05-09 07:38 | 72.37993 | -22.54979 | 11943 ft | 341 kts | 191° |
| 2026-05-09 07:38 | 72.35738 | -22.56239 | 11608 ft | 318 kts | 191° |
| 2026-05-09 07:38 | 72.33598 | -22.57424 | 11104 ft | 303 kts | 191° |
| 2026-05-09 07:39 | 72.31574 | -22.58548 | 10621 ft | 293 kts | 191° |
| 2026-05-09 07:39 | 72.29578 | -22.59658 | 10168 ft | 283 kts | 191° |
| 2026-05-09 07:39 | 72.27673 | -22.60716 | 9745 ft | 276 kts | 191° |
| 2026-05-09 07:39 | 72.25832 | -22.61736 | 9327 ft | 270 kts | 191° |
| 2026-05-09 07:40 | 72.23994 | -22.62755 | 8915 ft | 265 kts | 191° |
| 2026-05-09 07:40 | 72.22199 | -22.63748 | 8516 ft | 261 kts | 191° |
| 2026-05-09 07:40 | 72.20428 | -22.64725 | 8118 ft | 258 kts | 190° |
| 2026-05-09 07:40 | 72.18670 | -22.65693 | 7724 ft | 256 kts | 189° |
| 2026-05-09 07:41 | 72.16970 | -22.67029 | 7329 ft | 253 kts | 205° |
| 2026-05-09 07:41 | 72.15589 | -22.70457 | 7002 ft | 248 kts | 221° |
| 2026-05-09 07:41 | 72.14297 | -22.74083 | 6653 ft | 246 kts | 221° |
| 2026-05-09 07:41 | 72.13020 | -22.77766 | 6325 ft | 244 kts | 222° |
| 2026-05-09 07:42 | 72.11846 | -22.81528 | 5982 ft | 234 kts | 234° |
| 2026-05-09 07:42 | 72.11425 | -22.86402 | 5643 ft | 223 kts | 272° |
| 2026-05-09 07:42 | 72.11689 | -22.91209 | 5343 ft | 215 kts | 286° |
| 2026-05-09 07:42 | 72.12112 | -22.95695 | 5284 ft | 197 kts | 289° |
| 2026-05-09 07:43 | 72.12543 | -22.99739 | 5162 ft | 188 kts | 291° |
| 2026-05-09 07:43 | 72.12973 | -23.03724 | 4889 ft | 186 kts | 290° |
| 2026-05-09 07:43 | 72.13388 | -23.07675 | 4620 ft | 185 kts | 290° |
| 2026-05-09 07:43 | 72.13844 | -23.11637 | 4354 ft | 192 kts | 292° |
| 2026-05-09 07:44 | 72.14350 | -23.15771 | 4088 ft | 200 kts | 293° |
| 2026-05-09 07:44 | 72.14877 | -23.19996 | 3828 ft | 205 kts | 293° |
| 2026-05-09 07:44 | 72.15418 | -23.24348 | 3559 ft | 209 kts | 293° |
| 2026-05-09 07:44 | 72.15951 | -23.28663 | 3318 ft | 202 kts | 293° |
| 2026-05-09 07:45 | 72.16459 | -23.32794 | 3061 ft | 195 kts | 293° |
| 2026-05-09 07:45 | 72.16956 | -23.36860 | 2802 ft | 189 kts | 293° |
| 2026-05-09 07:45 | 72.17436 | -23.40789 | 2551 ft | 185 kts | 293° |
| 2026-05-09 07:45 | 72.17902 | -23.44603 | 2303 ft | 181 kts | 293° |
| 2026-05-09 07:46 | 72.18363 | -23.48391 | 2068 ft | 177 kts | 293° |
| 2026-05-09 07:46 | 72.18779 | -23.51834 | 2033 ft | 153 kts | 293° |
| 2026-05-09 07:46 | 72.19142 | -23.54837 | 1965 ft | 136 kts | 294° |
| 2026-05-09 07:46 | 72.19473 | -23.57555 | 1933 ft | 120 kts | 294° |
| 2026-05-09 07:47 | 72.19760 | -23.59919 | 1922 ft | 104 kts | 294° |
| 2026-05-09 07:47 | 72.20001 | -23.61902 | 1940 ft | 93 kts | 294° |
| 2026-05-09 07:47 | 72.20234 | -23.63836 | 1984 ft | 90 kts | 294° |
| 2026-05-09 07:47 | 72.20464 | -23.65739 | 1851 ft | 92 kts | 293° |
| 2026-05-09 07:48 | 72.20705 | -23.67733 | 1681 ft | 99 kts | 292° |
| 2026-05-09 07:48 | 72.20961 | -23.69855 | 1546 ft | 103 kts | 293° |
| 2026-05-09 07:48 | 72.21225 | -23.72055 | 1378 ft | 105 kts | 292° |
| 2026-05-09 07:48 | 72.21493 | -23.74297 | 1194 ft | 103 kts | 292° |
| 2026-05-09 07:49 | 72.21751 | -23.76451 | 1050 ft | 101 kts | 292° |
| 2026-05-09 07:49 | 72.22003 | -23.78561 | 907 ft | 99 kts | 293° |
| 2026-05-09 07:49 | 72.22253 | -23.80652 | 764 ft | 98 kts | 293° |
| 2026-05-09 07:49 | 72.22499 | -23.82723 | 623 ft | 98 kts | 292° |
| 2026-05-09 07:50 | 72.22736 | -23.84782 | 498 ft | 96 kts | 290° |
| 2026-05-09 07:50 | 72.22959 | -23.86855 | 358 ft | 96 kts | 293° |
| 2026-05-09 07:50 | 72.23213 | -23.88866 | 221 ft | 97 kts | 295° |
| 2026-05-09 07:50 | 72.23476 | -23.90914 | 74 ft | 97 kts | 292° |
| 2026-05-09 07:51 | 72.23653 | -23.92441 | 9 ft | 0 kts | 295° |
| 2026-05-09 07:51 | 72.23653 | -23.92442 | 1 ft | 0 kts | 295° |
| 2026-05-09 07:52 | 72.23635 | -23.92300 | 1 ft | 0 kts | 294° |
| 2026-05-09 07:52 | 72.23576 | -23.91791 | 9 ft | 0 kts | 114° |